sensor_id;sensor_type;location;lat;lon;timestamp;P1;durP1;ratioP1;P2;durP2;ratioP2
42742;SDS011;28397;44.552;-0.848;2023-01-29T00:01:15;9.60;;;8.70;;
42742;SDS011;28397;44.552;-0.848;2023-01-29T00:03:41;10.68;;;9.57;;
42742;SDS011;28397;44.552;-0.848;2023-01-29T00:06:07;9.00;;;8.20;;
42742;SDS011;28397;44.552;-0.848;2023-01-29T00:08:34;8.57;;;7.78;;
42742;SDS011;28397;44.552;-0.848;2023-01-29T00:11:04;9.02;;;8.23;;
42742;SDS011;28397;44.552;-0.848;2023-01-29T00:13:32;8.18;;;7.40;;
42742;SDS011;28397;44.552;-0.848;2023-01-29T00:15:58;9.20;;;8.07;;
42742;SDS011;28397;44.552;-0.848;2023-01-29T00:18:25;9.27;;;8.38;;
42742;SDS011;28397;44.552;-0.848;2023-01-29T00:20:53;8.85;;;8.02;;
42742;SDS011;28397;44.552;-0.848;2023-01-29T00:23:18;8.00;;;7.30;;
42742;SDS011;28397;44.552;-0.848;2023-01-29T00:25:45;7.93;;;7.13;;
42742;SDS011;28397;44.552;-0.848;2023-01-29T00:28:10;8.77;;;7.97;;
42742;SDS011;28397;44.552;-0.848;2023-01-29T00:30:37;8.50;;;7.25;;
42742;SDS011;28397;44.552;-0.848;2023-01-29T00:33:03;8.68;;;7.72;;
42742;SDS011;28397;44.552;-0.848;2023-01-29T00:35:30;9.02;;;8.13;;
42742;SDS011;28397;44.552;-0.848;2023-01-29T00:37:56;9.13;;;8.23;;
42742;SDS011;28397;44.552;-0.848;2023-01-29T00:40:22;11.50;;;10.40;;
42742;SDS011;28397;44.552;-0.848;2023-01-29T00:42:48;9.75;;;8.85;;
42742;SDS011;28397;44.552;-0.848;2023-01-29T00:45:32;10.32;;;9.23;;
42742;SDS011;28397;44.552;-0.848;2023-01-29T00:48:00;10.35;;;9.35;;
42742;SDS011;28397;44.552;-0.848;2023-01-29T00:50:29;9.90;;;8.90;;
42742;SDS011;28397;44.552;-0.848;2023-01-29T00:52:55;10.48;;;8.93;;
42742;SDS011;28397;44.552;-0.848;2023-01-29T00:55:21;10.43;;;9.40;;
42742;SDS011;28397;44.552;-0.848;2023-01-29T00:57:47;10.77;;;9.68;;
42742;SDS011;28397;44.552;-0.848;2023-01-29T01:00:14;10.65;;;9.55;;
42742;SDS011;28397;44.552;-0.848;2023-01-29T01:02:41;9.73;;;8.82;;
42742;SDS011;28397;44.552;-0.848;2023-01-29T01:05:26;11.18;;;10.05;;
42742;SDS011;28397;44.552;-0.848;2023-01-29T01:07:53;11.65;;;10.57;;
42742;SDS011;28397;44.552;-0.848;2023-01-29T01:10:30;11.10;;;9.95;;
42742;SDS011;28397;44.552;-0.848;2023-01-29T01:12:58;11.10;;;9.90;;
42742;SDS011;28397;44.552;-0.848;2023-01-29T01:15:29;10.80;;;9.80;;
42742;SDS011;28397;44.552;-0.848;2023-01-29T01:17:59;12.00;;;10.80;;
42742;SDS011;28397;44.552;-0.848;2023-01-29T01:20:26;13.00;;;11.80;;
42742;SDS011;28397;44.552;-0.848;2023-01-29T01:22:53;11.90;;;10.80;;
42742;SDS011;28397;44.552;-0.848;2023-01-29T01:25:20;12.40;;;11.20;;
42742;SDS011;28397;44.552;-0.848;2023-01-29T01:27:49;12.73;;;11.52;;
42742;SDS011;28397;44.552;-0.848;2023-01-29T01:30:20;13.00;;;11.80;;
42742;SDS011;28397;44.552;-0.848;2023-01-29T01:32:46;12.50;;;11.35;;
42742;SDS011;28397;44.552;-0.848;2023-01-29T01:35:11;12.13;;;10.85;;
42742;SDS011;28397;44.552;-0.848;2023-01-29T01:37:40;12.52;;;11.32;;
42742;SDS011;28397;44.552;-0.848;2023-01-29T01:40:11;12.48;;;11.18;;
42742;SDS011;28397;44.552;-0.848;2023-01-29T01:42:42;12.60;;;11.30;;
42742;SDS011;28397;44.552;-0.848;2023-01-29T01:45:42;13.23;;;11.82;;
42742;SDS011;28397;44.552;-0.848;2023-01-29T01:48:17;12.80;;;11.60;;
42742;SDS011;28397;44.552;-0.848;2023-01-29T01:51:00;13.57;;;12.23;;
42742;SDS011;28397;44.552;-0.848;2023-01-29T01:53:38;13.48;;;12.18;;
42742;SDS011;28397;44.552;-0.848;2023-01-29T01:56:12;13.88;;;12.57;;
42742;SDS011;28397;44.552;-0.848;2023-01-29T02:01:09;12.73;;;11.52;;
42742;SDS011;28397;44.552;-0.848;2023-01-29T02:03:38;12.63;;;11.43;;
42742;SDS011;28397;44.552;-0.848;2023-01-29T02:06:26;13.57;;;12.23;;
42742;SDS011;28397;44.552;-0.848;2023-01-29T02:09:21;14.55;;;13.00;;
42742;SDS011;28397;44.552;-0.848;2023-01-29T02:12:03;13.85;;;12.52;;
42742;SDS011;28397;44.552;-0.848;2023-01-29T02:14:34;13.88;;;12.48;;
42742;SDS011;28397;44.552;-0.848;2023-01-29T02:17:05;15.00;;;13.20;;
42742;SDS011;28397;44.552;-0.848;2023-01-29T02:19:40;14.52;;;13.13;;
42742;SDS011;28397;44.552;-0.848;2023-01-29T02:25:39;14.55;;;13.15;;
42742;SDS011;28397;44.552;-0.848;2023-01-29T02:34:05;13.77;;;12.48;;
42742;SDS011;28397;44.552;-0.848;2023-01-29T02:36:40;14.43;;;13.02;;
42742;SDS011;28397;44.552;-0.848;2023-01-29T02:39:20;15.00;;;13.52;;
42742;SDS011;28397;44.552;-0.848;2023-01-29T02:44:46;14.88;;;13.48;;
42742;SDS011;28397;44.552;-0.848;2023-01-29T02:47:34;14.70;;;13.20;;
42742;SDS011;28397;44.552;-0.848;2023-01-29T02:55:30;14.90;;;13.50;;
42742;SDS011;28397;44.552;-0.848;2023-01-29T03:01:44;14.13;;;12.82;;
42742;SDS011;28397;44.552;-0.848;2023-01-29T03:04:30;15.93;;;14.35;;
42742;SDS011;28397;44.552;-0.848;2023-01-29T03:07:02;15.25;;;13.75;;
42742;SDS011;28397;44.552;-0.848;2023-01-29T03:12:01;15.55;;;14.05;;
42742;SDS011;28397;44.552;-0.848;2023-01-29T03:17:56;15.82;;;14.27;;
42742;SDS011;28397;44.552;-0.848;2023-01-29T03:20:43;15.90;;;14.38;;
42742;SDS011;28397;44.552;-0.848;2023-01-29T03:23:21;16.42;;;14.82;;
42742;SDS011;28397;44.552;-0.848;2023-01-29T03:26:02;16.10;;;14.52;;
42742;SDS011;28397;44.552;-0.848;2023-01-29T03:28:48;16.05;;;14.55;;
42742;SDS011;28397;44.552;-0.848;2023-01-29T03:31:33;16.30;;;14.70;;
42742;SDS011;28397;44.552;-0.848;2023-01-29T03:34:20;16.17;;;14.63;;
42742;SDS011;28397;44.552;-0.848;2023-01-29T03:36:53;16.67;;;14.98;;
42742;SDS011;28397;44.552;-0.848;2023-01-29T03:39:26;15.68;;;14.18;;
42742;SDS011;28397;44.552;-0.848;2023-01-29T03:42:03;16.58;;;14.98;;
42742;SDS011;28397;44.552;-0.848;2023-01-29T03:52:43;16.08;;;14.52;;
42742;SDS011;28397;44.552;-0.848;2023-01-29T03:55:41;18.13;;;16.23;;
42742;SDS011;28397;44.552;-0.848;2023-01-29T04:00:44;18.48;;;16.52;;
42742;SDS011;28397;44.552;-0.848;2023-01-29T04:03:19;17.48;;;15.75;;
42742;SDS011;28397;44.552;-0.848;2023-01-29T04:08:35;18.42;;;16.63;;
42742;SDS011;28397;44.552;-0.848;2023-01-29T04:11:22;18.35;;;16.50;;
42742;SDS011;28397;44.552;-0.848;2023-01-29T04:13:50;18.75;;;16.80;;
42742;SDS011;28397;44.552;-0.848;2023-01-29T04:16:20;18.45;;;16.52;;
42742;SDS011;28397;44.552;-0.848;2023-01-29T04:18:49;18.98;;;17.00;;
42742;SDS011;28397;44.552;-0.848;2023-01-29T04:21:16;18.60;;;16.80;;
42742;SDS011;28397;44.552;-0.848;2023-01-29T04:23:43;17.98;;;16.15;;
42742;SDS011;28397;44.552;-0.848;2023-01-29T04:29:17;17.88;;;16.13;;
42742;SDS011;28397;44.552;-0.848;2023-01-29T04:31:47;16.85;;;15.25;;
42742;SDS011;28397;44.552;-0.848;2023-01-29T04:34:20;17.67;;;15.90;;
42742;SDS011;28397;44.552;-0.848;2023-01-29T04:36:58;17.73;;;16.02;;
42742;SDS011;28397;44.552;-0.848;2023-01-29T04:39:36;17.60;;;15.85;;
42742;SDS011;28397;44.552;-0.848;2023-01-29T04:45:02;17.05;;;15.35;;
42742;SDS011;28397;44.552;-0.848;2023-01-29T04:47:34;17.23;;;15.52;;
42742;SDS011;28397;44.552;-0.848;2023-01-29T04:58:37;18.70;;;16.77;;
42742;SDS011;28397;44.552;-0.848;2023-01-29T05:01:07;17.38;;;15.57;;
42742;SDS011;28397;44.552;-0.848;2023-01-29T05:03:37;18.08;;;16.45;;
42742;SDS011;28397;44.552;-0.848;2023-01-29T05:06:06;17.50;;;15.80;;
42742;SDS011;28397;44.552;-0.848;2023-01-29T05:08:35;17.30;;;15.65;;
42742;SDS011;28397;44.552;-0.848;2023-01-29T05:11:03;17.77;;;16.10;;
42742;SDS011;28397;44.552;-0.848;2023-01-29T05:13:30;18.30;;;16.50;;
42742;SDS011;28397;44.552;-0.848;2023-01-29T05:15:59;18.80;;;16.98;;
42742;SDS011;28397;44.552;-0.848;2023-01-29T05:18:42;18.05;;;16.15;;
42742;SDS011;28397;44.552;-0.848;2023-01-29T05:21:08;18.30;;;16.48;;
42742;SDS011;28397;44.552;-0.848;2023-01-29T05:23:34;18.02;;;16.23;;
42742;SDS011;28397;44.552;-0.848;2023-01-29T05:26:00;18.85;;;16.98;;
42742;SDS011;28397;44.552;-0.848;2023-01-29T05:28:26;18.85;;;17.02;;
42742;SDS011;28397;44.552;-0.848;2023-01-29T05:30:53;18.67;;;16.88;;
42742;SDS011;28397;44.552;-0.848;2023-01-29T05:35:54;17.80;;;16.00;;
42742;SDS011;28397;44.552;-0.848;2023-01-29T05:38:22;18.70;;;16.83;;
42742;SDS011;28397;44.552;-0.848;2023-01-29T05:40:48;19.45;;;17.55;;
42742;SDS011;28397;44.552;-0.848;2023-01-29T05:43:14;19.23;;;16.85;;
42742;SDS011;28397;44.552;-0.848;2023-01-29T05:45:51;18.70;;;16.80;;
42742;SDS011;28397;44.552;-0.848;2023-01-29T05:48:21;19.58;;;17.58;;
42742;SDS011;28397;44.552;-0.848;2023-01-29T05:50:47;19.25;;;17.33;;
42742;SDS011;28397;44.552;-0.848;2023-01-29T05:53:13;18.70;;;16.90;;
42742;SDS011;28397;44.552;-0.848;2023-01-29T05:55:39;18.63;;;16.83;;
42742;SDS011;28397;44.552;-0.848;2023-01-29T05:58:09;19.25;;;17.35;;
42742;SDS011;28397;44.552;-0.848;2023-01-29T06:00:35;19.17;;;17.27;;
42742;SDS011;28397;44.552;-0.848;2023-01-29T06:03:01;21.35;;;19.05;;
42742;SDS011;28397;44.552;-0.848;2023-01-29T06:05:27;20.48;;;18.48;;
42742;SDS011;28397;44.552;-0.848;2023-01-29T06:07:52;20.13;;;18.13;;
42742;SDS011;28397;44.552;-0.848;2023-01-29T06:10:18;21.73;;;19.52;;
42742;SDS011;28397;44.552;-0.848;2023-01-29T06:12:44;22.67;;;20.58;;
42742;SDS011;28397;44.552;-0.848;2023-01-29T06:15:10;21.65;;;19.55;;
42742;SDS011;28397;44.552;-0.848;2023-01-29T06:17:36;20.77;;;18.67;;
42742;SDS011;28397;44.552;-0.848;2023-01-29T06:20:02;23.17;;;20.95;;
42742;SDS011;28397;44.552;-0.848;2023-01-29T06:22:29;22.30;;;20.10;;
42742;SDS011;28397;44.552;-0.848;2023-01-29T06:24:54;20.77;;;18.77;;
42742;SDS011;28397;44.552;-0.848;2023-01-29T06:27:20;19.13;;;17.33;;
42742;SDS011;28397;44.552;-0.848;2023-01-29T06:29:46;20.02;;;18.13;;
42742;SDS011;28397;44.552;-0.848;2023-01-29T06:32:11;21.00;;;18.90;;
42742;SDS011;28397;44.552;-0.848;2023-01-29T06:34:37;20.30;;;18.30;;
42742;SDS011;28397;44.552;-0.848;2023-01-29T06:37:03;20.17;;;18.08;;
42742;SDS011;28397;44.552;-0.848;2023-01-29T06:39:28;20.05;;;18.05;;
42742;SDS011;28397;44.552;-0.848;2023-01-29T06:41:54;19.45;;;17.65;;
42742;SDS011;28397;44.552;-0.848;2023-01-29T06:44:20;20.40;;;18.40;;
42742;SDS011;28397;44.552;-0.848;2023-01-29T06:46:46;19.92;;;18.02;;
42742;SDS011;28397;44.552;-0.848;2023-01-29T06:49:11;20.10;;;18.10;;
42742;SDS011;28397;44.552;-0.848;2023-01-29T06:51:37;21.05;;;18.92;;
42742;SDS011;28397;44.552;-0.848;2023-01-29T06:54:03;19.77;;;17.88;;
42742;SDS011;28397;44.552;-0.848;2023-01-29T06:56:30;19.95;;;18.05;;
42742;SDS011;28397;44.552;-0.848;2023-01-29T06:58:56;20.23;;;18.23;;
42742;SDS011;28397;44.552;-0.848;2023-01-29T07:01:21;20.45;;;18.45;;
42742;SDS011;28397;44.552;-0.848;2023-01-29T07:03:50;19.65;;;17.80;;
42742;SDS011;28397;44.552;-0.848;2023-01-29T07:06:16;23.83;;;21.40;;
42742;SDS011;28397;44.552;-0.848;2023-01-29T07:08:42;24.55;;;21.92;;
42742;SDS011;28397;44.552;-0.848;2023-01-29T07:11:09;24.13;;;21.67;;
42742;SDS011;28397;44.552;-0.848;2023-01-29T07:13:35;25.08;;;22.48;;
42742;SDS011;28397;44.552;-0.848;2023-01-29T07:16:00;23.88;;;21.42;;
42742;SDS011;28397;44.552;-0.848;2023-01-29T07:18:27;24.67;;;22.17;;
42742;SDS011;28397;44.552;-0.848;2023-01-29T07:20:54;24.85;;;22.38;;
42742;SDS011;28397;44.552;-0.848;2023-01-29T07:23:20;23.02;;;20.73;;
42742;SDS011;28397;44.552;-0.848;2023-01-29T07:25:47;23.17;;;20.98;;
42742;SDS011;28397;44.552;-0.848;2023-01-29T07:28:16;22.70;;;20.48;;
42742;SDS011;28397;44.552;-0.848;2023-01-29T07:30:42;19.90;;;17.90;;
42742;SDS011;28397;44.552;-0.848;2023-01-29T07:33:08;20.95;;;18.85;;
42742;SDS011;28397;44.552;-0.848;2023-01-29T07:35:36;20.65;;;18.55;;
42742;SDS011;28397;44.552;-0.848;2023-01-29T07:38:03;21.10;;;19.00;;
42742;SDS011;28397;44.552;-0.848;2023-01-29T07:40:29;22.02;;;19.73;;
42742;SDS011;28397;44.552;-0.848;2023-01-29T07:42:58;25.58;;;21.58;;
42742;SDS011;28397;44.552;-0.848;2023-01-29T07:45:25;20.65;;;18.70;;
42742;SDS011;28397;44.552;-0.848;2023-01-29T07:47:52;22.75;;;20.50;;
42742;SDS011;28397;44.552;-0.848;2023-01-29T07:50:19;23.42;;;21.23;;
42742;SDS011;28397;44.552;-0.848;2023-01-29T07:52:45;22.58;;;20.30;;
42742;SDS011;28397;44.552;-0.848;2023-01-29T07:55:11;25.23;;;22.63;;
42742;SDS011;28397;44.552;-0.848;2023-01-29T07:57:37;24.45;;;21.95;;
42742;SDS011;28397;44.552;-0.848;2023-01-29T08:00:02;23.38;;;21.08;;
42742;SDS011;28397;44.552;-0.848;2023-01-29T08:02:28;23.00;;;20.80;;
42742;SDS011;28397;44.552;-0.848;2023-01-29T08:04:54;23.17;;;20.77;;
42742;SDS011;28397;44.552;-0.848;2023-01-29T08:07:20;21.73;;;19.52;;
42742;SDS011;28397;44.552;-0.848;2023-01-29T08:09:46;21.08;;;18.98;;
42742;SDS011;28397;44.552;-0.848;2023-01-29T08:12:11;22.63;;;20.27;;
42742;SDS011;28397;44.552;-0.848;2023-01-29T08:14:39;22.23;;;20.02;;
42742;SDS011;28397;44.552;-0.848;2023-01-29T08:17:04;21.98;;;19.77;;
42742;SDS011;28397;44.552;-0.848;2023-01-29T08:19:30;22.77;;;20.40;;
42742;SDS011;28397;44.552;-0.848;2023-01-29T08:21:56;22.27;;;19.92;;
42742;SDS011;28397;44.552;-0.848;2023-01-29T08:24:21;21.83;;;19.63;;
42742;SDS011;28397;44.552;-0.848;2023-01-29T08:26:47;22.52;;;20.23;;
42742;SDS011;28397;44.552;-0.848;2023-01-29T08:29:13;21.80;;;19.60;;
42742;SDS011;28397;44.552;-0.848;2023-01-29T08:31:39;21.42;;;19.33;;
42742;SDS011;28397;44.552;-0.848;2023-01-29T08:34:04;22.80;;;20.38;;
42742;SDS011;28397;44.552;-0.848;2023-01-29T08:36:30;22.50;;;20.30;;
42742;SDS011;28397;44.552;-0.848;2023-01-29T08:38:56;23.20;;;20.63;;
42742;SDS011;28397;44.552;-0.848;2023-01-29T08:41:22;22.42;;;20.17;;
42742;SDS011;28397;44.552;-0.848;2023-01-29T08:43:47;22.75;;;20.45;;
42742;SDS011;28397;44.552;-0.848;2023-01-29T08:46:13;22.92;;;20.73;;
42742;SDS011;28397;44.552;-0.848;2023-01-29T08:48:39;22.95;;;20.65;;
42742;SDS011;28397;44.552;-0.848;2023-01-29T08:51:04;23.70;;;21.20;;
42742;SDS011;28397;44.552;-0.848;2023-01-29T08:53:30;22.65;;;20.35;;
42742;SDS011;28397;44.552;-0.848;2023-01-29T08:55:56;22.55;;;20.27;;
42742;SDS011;28397;44.552;-0.848;2023-01-29T08:58:22;23.38;;;20.98;;
42742;SDS011;28397;44.552;-0.848;2023-01-29T09:00:48;23.80;;;21.33;;
42742;SDS011;28397;44.552;-0.848;2023-01-29T09:03:13;23.88;;;21.48;;
42742;SDS011;28397;44.552;-0.848;2023-01-29T09:05:40;22.55;;;20.00;;
42742;SDS011;28397;44.552;-0.848;2023-01-29T09:08:06;22.55;;;20.25;;
42742;SDS011;28397;44.552;-0.848;2023-01-29T09:10:33;23.80;;;21.25;;
42742;SDS011;28397;44.552;-0.848;2023-01-29T09:12:59;21.70;;;19.50;;
42742;SDS011;28397;44.552;-0.848;2023-01-29T09:15:25;22.50;;;20.23;;
42742;SDS011;28397;44.552;-0.848;2023-01-29T09:17:51;24.38;;;21.88;;
42742;SDS011;28397;44.552;-0.848;2023-01-29T09:20:17;23.30;;;20.92;;
42742;SDS011;28397;44.552;-0.848;2023-01-29T09:22:44;22.67;;;20.23;;
42742;SDS011;28397;44.552;-0.848;2023-01-29T09:25:11;23.42;;;20.95;;
42742;SDS011;28397;44.552;-0.848;2023-01-29T09:27:37;23.60;;;21.17;;
42742;SDS011;28397;44.552;-0.848;2023-01-29T09:30:04;22.50;;;20.20;;
42742;SDS011;28397;44.552;-0.848;2023-01-29T09:32:30;23.80;;;21.33;;
42742;SDS011;28397;44.552;-0.848;2023-01-29T09:34:57;22.58;;;20.15;;
42742;SDS011;28397;44.552;-0.848;2023-01-29T09:37:23;21.88;;;19.63;;
42742;SDS011;28397;44.552;-0.848;2023-01-29T09:39:49;22.25;;;19.95;;
42742;SDS011;28397;44.552;-0.848;2023-01-29T09:42:20;21.05;;;18.98;;
42742;SDS011;28397;44.552;-0.848;2023-01-29T09:45:17;22.45;;;20.13;;
42742;SDS011;28397;44.552;-0.848;2023-01-29T09:47:51;21.08;;;18.95;;
42742;SDS011;28397;44.552;-0.848;2023-01-29T09:50:38;22.27;;;19.90;;
42742;SDS011;28397;44.552;-0.848;2023-01-29T09:55:48;22.02;;;19.73;;
42742;SDS011;28397;44.552;-0.848;2023-01-29T10:09:46;22.08;;;19.70;;
42742;SDS011;28397;44.552;-0.848;2023-01-29T10:12:38;23.98;;;21.38;;
42742;SDS011;28397;44.552;-0.848;2023-01-29T10:23:57;22.75;;;20.35;;
42742;SDS011;28397;44.552;-0.848;2023-01-29T10:26:37;21.08;;;18.95;;
42742;SDS011;28397;44.552;-0.848;2023-01-29T10:29:05;22.23;;;19.92;;
42742;SDS011;28397;44.552;-0.848;2023-01-29T10:31:32;21.83;;;19.48;;
42742;SDS011;28397;44.552;-0.848;2023-01-29T10:34:13;20.00;;;17.95;;
42742;SDS011;28397;44.552;-0.848;2023-01-29T10:36:53;21.48;;;19.33;;
42742;SDS011;28397;44.552;-0.848;2023-01-29T10:39:21;20.48;;;18.45;;
42742;SDS011;28397;44.552;-0.848;2023-01-29T10:55:38;15.90;;;14.30;;
42742;SDS011;28397;44.552;-0.848;2023-01-29T11:01:07;15.32;;;13.82;;
42742;SDS011;28397;44.552;-0.848;2023-01-29T11:03:36;15.18;;;13.68;;
42742;SDS011;28397;44.552;-0.848;2023-01-29T11:12:02;15.38;;;13.95;;
42742;SDS011;28397;44.552;-0.848;2023-01-29T11:14:42;15.55;;;13.95;;
42742;SDS011;28397;44.552;-0.848;2023-01-29T11:17:22;16.50;;;14.80;;
42742;SDS011;28397;44.552;-0.848;2023-01-29T11:19:49;15.65;;;14.15;;
42742;SDS011;28397;44.552;-0.848;2023-01-29T11:22:16;15.88;;;14.27;;
42742;SDS011;28397;44.552;-0.848;2023-01-29T11:24:44;14.85;;;13.43;;
42742;SDS011;28397;44.552;-0.848;2023-01-29T11:27:31;14.05;;;12.65;;
42742;SDS011;28397;44.552;-0.848;2023-01-29T11:29:59;13.65;;;12.25;;
42742;SDS011;28397;44.552;-0.848;2023-01-29T11:32:29;13.90;;;12.52;;
42742;SDS011;28397;44.552;-0.848;2023-01-29T11:34:59;14.30;;;12.90;;
42742;SDS011;28397;44.552;-0.848;2023-01-29T11:37:32;13.05;;;11.75;;
42742;SDS011;28397;44.552;-0.848;2023-01-29T11:40:37;15.13;;;13.25;;
42742;SDS011;28397;44.552;-0.848;2023-01-29T11:45:50;13.27;;;11.98;;
42742;SDS011;28397;44.552;-0.848;2023-01-29T11:48:22;13.68;;;12.38;;
42742;SDS011;28397;44.552;-0.848;2023-01-29T11:50:56;13.35;;;12.05;;
42742;SDS011;28397;44.552;-0.848;2023-01-29T11:53:33;13.45;;;12.15;;
42742;SDS011;28397;44.552;-0.848;2023-01-29T11:56:21;14.15;;;12.75;;
42742;SDS011;28397;44.552;-0.848;2023-01-29T11:58:52;13.85;;;12.45;;
42742;SDS011;28397;44.552;-0.848;2023-01-29T12:01:30;13.07;;;11.88;;
42742;SDS011;28397;44.552;-0.848;2023-01-29T12:04:00;13.85;;;12.45;;
42742;SDS011;28397;44.552;-0.848;2023-01-29T12:06:32;12.77;;;11.48;;
42742;SDS011;28397;44.552;-0.848;2023-01-29T12:09:01;12.95;;;11.75;;
42742;SDS011;28397;44.552;-0.848;2023-01-29T12:11:33;13.43;;;12.07;;
42742;SDS011;28397;44.552;-0.848;2023-01-29T12:14:00;14.15;;;12.73;;
42742;SDS011;28397;44.552;-0.848;2023-01-29T12:16:29;12.95;;;11.75;;
42742;SDS011;28397;44.552;-0.848;2023-01-29T12:19:30;13.45;;;12.15;;
42742;SDS011;28397;44.552;-0.848;2023-01-29T12:22:03;12.43;;;11.23;;
42742;SDS011;28397;44.552;-0.848;2023-01-29T12:24:39;18.10;;;15.38;;
42742;SDS011;28397;44.552;-0.848;2023-01-29T12:27:19;14.13;;;12.73;;
42742;SDS011;28397;44.552;-0.848;2023-01-29T12:30:10;13.40;;;12.00;;
42742;SDS011;28397;44.552;-0.848;2023-01-29T12:35:25;13.50;;;12.10;;
42742;SDS011;28397;44.552;-0.848;2023-01-29T12:40:41;13.85;;;12.20;;
42742;SDS011;28397;44.552;-0.848;2023-01-29T12:43:22;11.20;;;10.18;;
42742;SDS011;28397;44.552;-0.848;2023-01-29T12:45:54;9.32;;;8.43;;
42742;SDS011;28397;44.552;-0.848;2023-01-29T12:48:24;10.52;;;9.43;;
42742;SDS011;28397;44.552;-0.848;2023-01-29T12:51:03;12.05;;;10.85;;
42742;SDS011;28397;44.552;-0.848;2023-01-29T12:53:34;12.43;;;11.00;;
42742;SDS011;28397;44.552;-0.848;2023-01-29T12:56:18;12.40;;;11.10;;
42742;SDS011;28397;44.552;-0.848;2023-01-29T12:58:53;10.02;;;9.13;;
42742;SDS011;28397;44.552;-0.848;2023-01-29T13:01:26;16.55;;;13.40;;
42742;SDS011;28397;44.552;-0.848;2023-01-29T13:07:18;9.52;;;8.27;;
42742;SDS011;28397;44.552;-0.848;2023-01-29T13:10:00;20.38;;;17.77;;
42742;SDS011;28397;44.552;-0.848;2023-01-29T13:12:31;10.23;;;9.23;;
42742;SDS011;28397;44.552;-0.848;2023-01-29T13:15:00;10.65;;;9.63;;
42742;SDS011;28397;44.552;-0.848;2023-01-29T13:17:35;9.40;;;8.50;;
42742;SDS011;28397;44.552;-0.848;2023-01-29T13:22:40;8.63;;;7.82;;
42742;SDS011;28397;44.552;-0.848;2023-01-29T13:25:17;9.60;;;8.68;;
42742;SDS011;28397;44.552;-0.848;2023-01-29T13:27:45;12.43;;;11.23;;
42742;SDS011;28397;44.552;-0.848;2023-01-29T13:30:33;9.80;;;8.85;;
42742;SDS011;28397;44.552;-0.848;2023-01-29T13:33:02;10.02;;;9.02;;
42742;SDS011;28397;44.552;-0.848;2023-01-29T13:35:39;8.90;;;8.10;;
42742;SDS011;28397;44.552;-0.848;2023-01-29T13:38:19;8.57;;;7.78;;
42742;SDS011;28397;44.552;-0.848;2023-01-29T13:40:52;9.13;;;8.20;;
42742;SDS011;28397;44.552;-0.848;2023-01-29T13:43:26;9.45;;;8.55;;
42742;SDS011;28397;44.552;-0.848;2023-01-29T13:45:59;9.57;;;8.68;;
42742;SDS011;28397;44.552;-0.848;2023-01-29T13:48:42;11.30;;;10.20;;
42742;SDS011;28397;44.552;-0.848;2023-01-29T13:51:12;9.73;;;8.77;;
42742;SDS011;28397;44.552;-0.848;2023-01-29T13:53:50;9.20;;;8.40;;
42742;SDS011;28397;44.552;-0.848;2023-01-29T13:58:58;10.07;;;9.05;;
42742;SDS011;28397;44.552;-0.848;2023-01-29T14:01:58;11.75;;;10.43;;
42742;SDS011;28397;44.552;-0.848;2023-01-29T14:06:56;14.05;;;12.55;;
42742;SDS011;28397;44.552;-0.848;2023-01-29T14:12:01;9.55;;;8.55;;
42742;SDS011;28397;44.552;-0.848;2023-01-29T14:17:13;9.63;;;8.68;;
42742;SDS011;28397;44.552;-0.848;2023-01-29T14:20:23;9.40;;;8.50;;
42742;SDS011;28397;44.552;-0.848;2023-01-29T14:22:42;9.40;;;8.50;;
42742;SDS011;28397;44.552;-0.848;2023-01-29T14:25:14;9.00;;;8.20;;
42742;SDS011;28397;44.552;-0.848;2023-01-29T14:27:45;9.43;;;8.52;;
42742;SDS011;28397;44.552;-0.848;2023-01-29T14:30:14;8.73;;;7.82;;
42742;SDS011;28397;44.552;-0.848;2023-01-29T14:32:45;9.25;;;8.35;;
42742;SDS011;28397;44.552;-0.848;2023-01-29T14:35:17;10.52;;;9.20;;
42742;SDS011;28397;44.552;-0.848;2023-01-29T14:37:48;9.90;;;8.90;;
42742;SDS011;28397;44.552;-0.848;2023-01-29T14:45:32;10.30;;;9.20;;
42742;SDS011;28397;44.552;-0.848;2023-01-29T14:53:05;9.05;;;8.15;;
42742;SDS011;28397;44.552;-0.848;2023-01-29T14:58:14;8.20;;;7.45;;
42742;SDS011;28397;44.552;-0.848;2023-01-29T15:00:44;9.20;;;8.02;;
42742;SDS011;28397;44.552;-0.848;2023-01-29T15:06:15;8.57;;;7.78;;
42742;SDS011;28397;44.552;-0.848;2023-01-29T15:08:52;8.93;;;8.07;;
42742;SDS011;28397;44.552;-0.848;2023-01-29T15:14:30;8.57;;;7.68;;
42742;SDS011;28397;44.552;-0.848;2023-01-29T15:19:50;9.02;;;8.13;;
42742;SDS011;28397;44.552;-0.848;2023-01-29T15:22:17;9.18;;;8.30;;
42742;SDS011;28397;44.552;-0.848;2023-01-29T15:24:45;8.70;;;7.90;;
42742;SDS011;28397;44.552;-0.848;2023-01-29T15:27:25;8.90;;;8.10;;
42742;SDS011;28397;44.552;-0.848;2023-01-29T15:29:55;10.15;;;9.23;;
42742;SDS011;28397;44.552;-0.848;2023-01-29T15:32:27;9.25;;;8.35;;
42742;SDS011;28397;44.552;-0.848;2023-01-29T15:35:08;7.47;;;6.75;;
42742;SDS011;28397;44.552;-0.848;2023-01-29T15:37:41;8.25;;;7.45;;
42742;SDS011;28397;44.552;-0.848;2023-01-29T15:40:11;9.52;;;7.35;;
42742;SDS011;28397;44.552;-0.848;2023-01-29T15:42:41;11.45;;;8.35;;
42742;SDS011;28397;44.552;-0.848;2023-01-29T15:45:26;8.10;;;7.13;;
42742;SDS011;28397;44.552;-0.848;2023-01-29T15:47:57;7.65;;;6.95;;
42742;SDS011;28397;44.552;-0.848;2023-01-29T15:50:29;8.07;;;7.35;;
42742;SDS011;28397;44.552;-0.848;2023-01-29T15:52:57;8.38;;;7.60;;
42742;SDS011;28397;44.552;-0.848;2023-01-29T15:55:28;8.55;;;7.75;;
42742;SDS011;28397;44.552;-0.848;2023-01-29T15:57:55;9.43;;;8.48;;
42742;SDS011;28397;44.552;-0.848;2023-01-29T16:02:52;9.73;;;8.00;;
42742;SDS011;28397;44.552;-0.848;2023-01-29T16:05:25;8.15;;;7.43;;
42742;SDS011;28397;44.552;-0.848;2023-01-29T16:07:53;8.43;;;7.63;;
42742;SDS011;28397;44.552;-0.848;2023-01-29T16:10:21;9.85;;;8.85;;
42742;SDS011;28397;44.552;-0.848;2023-01-29T16:12:50;10.15;;;9.23;;
42742;SDS011;28397;44.552;-0.848;2023-01-29T16:15:22;10.25;;;9.25;;
42742;SDS011;28397;44.552;-0.848;2023-01-29T16:17:54;11.70;;;10.60;;
42742;SDS011;28397;44.552;-0.848;2023-01-29T16:20:39;14.55;;;13.05;;
42742;SDS011;28397;44.552;-0.848;2023-01-29T16:23:22;12.75;;;11.45;;
42742;SDS011;28397;44.552;-0.848;2023-01-29T16:26:04;13.80;;;12.40;;
42742;SDS011;28397;44.552;-0.848;2023-01-29T16:28:32;12.10;;;10.90;;
42742;SDS011;28397;44.552;-0.848;2023-01-29T16:31:04;11.90;;;10.70;;
42742;SDS011;28397;44.552;-0.848;2023-01-29T16:33:34;11.73;;;10.57;;
42742;SDS011;28397;44.552;-0.848;2023-01-29T16:36:02;10.32;;;9.32;;
42742;SDS011;28397;44.552;-0.848;2023-01-29T16:38:35;14.13;;;11.82;;
42742;SDS011;28397;44.552;-0.848;2023-01-29T16:48:42;14.85;;;13.23;;
42742;SDS011;28397;44.552;-0.848;2023-01-29T16:51:12;14.32;;;12.70;;
42742;SDS011;28397;44.552;-0.848;2023-01-29T16:53:58;14.40;;;12.50;;
42742;SDS011;28397;44.552;-0.848;2023-01-29T16:56:29;14.25;;;12.85;;
42742;SDS011;28397;44.552;-0.848;2023-01-29T16:58:57;12.85;;;11.52;;
42742;SDS011;28397;44.552;-0.848;2023-01-29T17:01:24;15.48;;;13.88;;
42742;SDS011;28397;44.552;-0.848;2023-01-29T17:03:55;24.60;;;20.17;;
42742;SDS011;28397;44.552;-0.848;2023-01-29T17:06:34;17.85;;;15.00;;
42742;SDS011;28397;44.552;-0.848;2023-01-29T17:09:00;20.17;;;17.15;;
42742;SDS011;28397;44.552;-0.848;2023-01-29T17:11:31;44.67;;;27.02;;
42742;SDS011;28397;44.552;-0.848;2023-01-29T17:14:00;26.90;;;19.63;;
42742;SDS011;28397;44.552;-0.848;2023-01-29T17:16:30;22.38;;;18.88;;
42742;SDS011;28397;44.552;-0.848;2023-01-29T17:18:58;26.80;;;22.27;;